createdAt,value
2018-08-19T00:00:54.597Z,27.10
2018-08-19T00:03:24.296Z,27.20
2018-08-19T00:05:54.295Z,27.10
2018-08-19T00:08:24.005Z,27.00
2018-08-19T00:11:01.966Z,27.00
2018-08-19T00:13:31.784Z,27.20
2018-08-19T00:16:01.545Z,27.20
2018-08-19T00:18:31.343Z,27.20
2018-08-19T00:21:00.928Z,27.20
2018-08-19T00:23:35.901Z,27.20
2018-08-19T00:26:05.516Z,27.00
2018-08-19T00:28:35.197Z,26.80
2018-08-19T00:31:07.147Z,26.80
2018-08-19T00:33:36.789Z,26.80
2018-08-19T00:36:31.554Z,26.80
2018-08-19T00:39:01.150Z,26.90
2018-08-19T00:41:30.758Z,27.00
2018-08-19T00:44:00.429Z,26.90
2018-08-19T00:46:32.488Z,26.80
2018-08-19T00:49:02.493Z,26.80
2018-08-19T00:51:32.262Z,26.80
2018-08-19T00:54:01.843Z,26.60
2018-08-19T00:56:31.424Z,26.50
2018-08-19T00:59:01.031Z,26.60
2018-08-19T01:01:36.418Z,26.60
2018-08-19T01:04:08.720Z,26.60
2018-08-19T01:06:43.563Z,26.80
2018-08-19T01:09:13.257Z,26.70
2018-08-19T01:11:44.406Z,26.60
2018-08-19T01:14:15.934Z,26.50
2018-08-19T01:16:45.695Z,26.40
2018-08-19T01:19:16.347Z,26.60
2018-08-19T01:21:48.316Z,26.60
2018-08-19T01:24:17.939Z,26.30
2018-08-19T01:26:47.615Z,26.40
2018-08-19T01:29:27.004Z,26.30
2018-08-19T01:31:57.493Z,26.10
2018-08-19T01:34:27.161Z,26.10
2018-08-19T01:36:56.870Z,26.20
2018-08-19T01:39:26.473Z,26.00
2018-08-19T01:41:56.089Z,26.00
2018-08-19T01:44:25.713Z,26.00
2018-08-19T01:46:55.294Z,25.90
2018-08-19T01:49:24.950Z,25.80
2018-08-19T01:51:54.557Z,25.60
2018-08-19T01:54:24.906Z,25.60
2018-08-19T01:56:56.723Z,25.60
2018-08-19T01:59:32.391Z,25.50
2018-08-19T02:02:03.677Z,25.40
2018-08-19T02:04:35.557Z,25.40
2018-08-19T02:07:05.242Z,25.40
2018-08-19T02:09:34.980Z,25.30
2018-08-19T02:12:04.555Z,25.30
2018-08-19T02:14:34.109Z,25.30
2018-08-19T02:17:04.873Z,25.20
2018-08-19T02:19:34.500Z,25.20
2018-08-19T02:22:04.198Z,25.40
2018-08-19T02:24:33.853Z,25.30
2018-08-19T02:27:03.446Z,25.30
2018-08-19T02:29:36.192Z,25.30
2018-08-19T02:32:07.439Z,25.20
2018-08-19T02:34:39.026Z,25.20
2018-08-19T02:37:10.945Z,25.20
2018-08-19T02:39:44.746Z,25.10
2018-08-19T02:42:28.590Z,25.00
2018-08-19T02:45:05.885Z,24.90
2018-08-19T02:47:36.305Z,24.90
2018-08-19T02:50:06.622Z,24.90
2018-08-19T02:52:38.392Z,24.90
2018-08-19T02:55:08.952Z,24.80
2018-08-19T02:57:41.139Z,24.80
2018-08-19T03:00:12.416Z,25.00
2018-08-19T03:02:42.989Z,24.90
2018-08-19T03:05:14.439Z,24.80
2018-08-19T03:07:44.099Z,24.80
2018-08-19T03:10:15.215Z,24.70
2018-08-19T03:12:45.379Z,24.70
2018-08-19T03:15:16.221Z,24.80
2018-08-19T03:17:49.365Z,24.80
2018-08-19T03:20:19.071Z,24.80
2018-08-19T03:22:48.573Z,24.80
2018-08-19T03:25:18.172Z,24.70
2018-08-19T03:27:47.795Z,24.70
2018-08-19T03:30:17.367Z,24.70
2018-08-19T03:32:52.234Z,24.60
2018-08-19T03:35:22.427Z,24.60
2018-08-19T03:37:54.541Z,24.60
2018-08-19T03:40:26.330Z,24.70
2018-08-19T03:42:56.074Z,24.80
2018-08-19T03:45:25.798Z,24.80
2018-08-19T03:47:55.397Z,24.70
2018-08-19T03:50:26.820Z,24.70
2018-08-19T03:52:57.284Z,24.60
2018-08-19T03:55:32.841Z,24.60
2018-08-19T03:58:06.531Z,24.60
2018-08-19T04:00:38.125Z,24.90
2018-08-19T04:03:16.136Z,24.70
2018-08-19T04:05:54.704Z,24.70
2018-08-19T04:08:33.352Z,24.80
2018-08-19T04:11:06.522Z,24.50
2018-08-19T04:13:38.571Z,24.60
2018-08-19T04:16:09.477Z,24.60
2018-08-19T04:18:43.385Z,24.70
2018-08-19T04:21:15.181Z,24.50
2018-08-19T04:23:47.002Z,24.60
2018-08-19T04:26:16.625Z,24.50
2018-08-19T04:28:46.874Z,24.50
2018-08-19T04:31:21.545Z,24.40
2018-08-19T04:33:51.188Z,24.40
2018-08-19T04:36:22.020Z,24.30
2018-08-19T04:38:51.689Z,24.20
2018-08-19T04:41:21.382Z,24.40
2018-08-19T04:43:51.165Z,24.40
2018-08-19T04:46:20.728Z,24.60
2018-08-19T04:48:50.307Z,24.60
2018-08-19T04:51:19.906Z,24.80
2018-08-19T04:53:49.564Z,24.70
2018-08-19T04:56:19.381Z,24.70
2018-08-19T04:58:48.951Z,24.60
2018-08-19T05:01:18.572Z,24.60
2018-08-19T05:03:48.328Z,24.60
2018-08-19T05:06:17.889Z,24.60
2018-08-19T05:08:47.457Z,24.60
2018-08-19T05:11:17.056Z,24.50
2018-08-19T05:13:46.689Z,24.60
2018-08-19T05:16:16.278Z,24.60
2018-08-19T05:18:52.224Z,24.70
2018-08-19T05:21:22.005Z,24.70
2018-08-19T05:23:51.629Z,24.70
2018-08-19T05:26:21.291Z,24.70
2018-08-19T05:29:06.384Z,24.80
2018-08-19T05:31:39.593Z,24.70
2018-08-19T05:34:16.395Z,24.90
2018-08-19T05:36:49.495Z,25.10
2018-08-19T05:39:19.692Z,24.90
2018-08-19T05:42:00.159Z,25.10
2018-08-19T05:44:35.453Z,25.20
2018-08-19T05:47:09.587Z,25.20
2018-08-19T05:49:42.219Z,25.20
2018-08-19T05:52:16.435Z,25.20
2018-08-19T05:54:51.133Z,25.30
2018-08-19T05:57:20.920Z,25.30
2018-08-19T05:59:51.704Z,25.30
2018-08-19T06:02:33.617Z,25.30
2018-08-19T06:05:04.380Z,25.50
2018-08-19T06:07:34.089Z,25.60
2018-08-19T06:10:03.829Z,25.60
2018-08-19T06:12:33.500Z,25.70
2018-08-19T06:15:03.498Z,25.70
2018-08-19T06:17:33.067Z,25.70
2018-08-19T06:20:02.686Z,25.80
2018-08-19T06:22:37.445Z,25.90
2018-08-19T06:25:07.101Z,26.00
2018-08-19T06:27:41.579Z,26.10
2018-08-19T06:30:11.275Z,26.20
2018-08-19T06:32:40.969Z,26.20
2018-08-19T06:35:10.619Z,26.30
2018-08-19T06:37:40.253Z,26.40
2018-08-19T06:40:11.678Z,26.40
2018-08-19T06:42:41.277Z,26.40
2018-08-19T06:45:12.109Z,26.50
2018-08-19T06:47:41.870Z,26.70
2018-08-19T06:50:21.965Z,26.70
2018-08-19T06:52:51.813Z,26.90
2018-08-19T06:55:21.726Z,26.80
2018-08-19T06:57:51.412Z,26.90
2018-08-19T07:00:25.592Z,27.00
2018-08-19T07:02:56.118Z,27.20
2018-08-19T07:05:25.823Z,27.30
2018-08-19T07:07:55.403Z,27.40
2018-08-19T07:10:31.245Z,27.60
2018-08-19T07:13:08.233Z,27.80
2018-08-19T07:15:39.293Z,27.90
2018-08-19T07:18:11.854Z,28.00
2018-08-19T07:20:42.265Z,28.00
2018-08-19T07:23:12.353Z,28.10
2018-08-19T07:25:44.326Z,27.90
2018-08-19T07:28:15.165Z,27.90
2018-08-19T07:30:44.882Z,28.20
2018-08-19T07:33:14.988Z,28.40
2018-08-19T07:35:44.595Z,28.50
2018-08-19T07:38:14.201Z,28.70
2018-08-19T07:40:43.813Z,28.60
2018-08-19T07:43:13.486Z,28.60
2018-08-19T07:45:43.069Z,28.80
2018-08-19T07:48:12.772Z,28.90
2018-08-19T07:50:42.373Z,28.90
2018-08-19T07:53:12.012Z,29.00
2018-08-19T07:55:41.536Z,28.80
2018-08-19T07:58:11.185Z,28.90
2018-08-19T08:00:41.489Z,29.00
2018-08-19T08:03:11.348Z,29.30
2018-08-19T08:05:46.141Z,29.40
2018-08-19T08:08:15.751Z,29.20
2018-08-19T08:10:47.601Z,29.10
2018-08-19T08:13:17.455Z,29.10
2018-08-19T08:15:52.097Z,29.50
2018-08-19T08:18:21.837Z,29.50
2018-08-19T08:20:57.392Z,29.50
2018-08-19T08:23:28.491Z,29.80
2018-08-19T08:25:58.042Z,29.80
2018-08-19T08:28:28.951Z,29.60
2018-08-19T08:31:01.590Z,29.80
2018-08-19T08:33:31.268Z,29.90
2018-08-19T08:36:00.824Z,30.00
2018-08-19T08:38:30.534Z,29.90
2018-08-19T08:41:00.074Z,30.00
2018-08-19T08:43:29.705Z,29.80
2018-08-19T08:45:59.374Z,29.70
2018-08-19T08:48:29.342Z,29.80
2018-08-19T08:50:58.894Z,30.10
2018-08-19T08:53:34.682Z,30.00
2018-08-19T08:56:04.990Z,30.10
2018-08-19T08:58:35.898Z,30.30
2018-08-19T09:01:06.045Z,30.30
2018-08-19T09:03:36.690Z,30.20
2018-08-19T09:06:15.752Z,30.40
2018-08-19T09:08:45.322Z,30.50
2018-08-19T09:11:15.684Z,30.70
2018-08-19T09:13:45.548Z,30.70
2018-08-19T09:16:16.029Z,30.80
2018-08-19T09:18:45.663Z,30.80
2018-08-19T09:21:15.764Z,30.90
2018-08-19T09:23:45.567Z,30.90
2018-08-19T09:26:15.450Z,30.90
2018-08-19T09:28:45.108Z,31.00
2018-08-19T09:31:14.805Z,30.80
2018-08-19T09:33:44.362Z,30.90
2018-08-19T09:36:13.986Z,31.10
2018-08-19T09:38:43.588Z,30.90
2018-08-19T09:41:13.204Z,30.90
2018-08-19T09:43:42.824Z,31.00
2018-08-19T09:46:12.352Z,31.20
2018-08-19T09:48:42.039Z,31.30
2018-08-19T09:51:16.233Z,31.10
2018-08-19T09:53:46.273Z,31.10
2018-08-19T09:56:15.972Z,31.10
2018-08-19T09:58:51.565Z,31.40
2018-08-19T10:01:26.412Z,31.40
2018-08-19T10:03:55.948Z,31.30
2018-08-19T10:06:27.089Z,31.20
2018-08-19T10:08:56.622Z,31.40
2018-08-19T10:11:26.631Z,31.40
2018-08-19T10:14:00.245Z,31.60
2018-08-19T10:16:42.824Z,31.70
2018-08-19T10:19:13.414Z,31.60
2018-08-19T10:21:43.236Z,31.60
2018-08-19T10:24:23.512Z,31.60
2018-08-19T10:26:53.116Z,31.70
2018-08-19T10:29:23.093Z,31.60
2018-08-19T10:31:55.041Z,31.70
2018-08-19T10:34:30.979Z,31.70
2018-08-19T10:37:01.400Z,31.80
2018-08-19T10:39:31.115Z,32.00
2018-08-19T10:42:17.244Z,32.10
2018-08-19T10:44:48.797Z,32.30
2018-08-19T10:47:20.344Z,32.20
2018-08-19T10:49:55.069Z,32.30
2018-08-19T10:52:30.543Z,32.20
2018-08-19T10:55:01.513Z,32.30
2018-08-19T10:57:32.420Z,32.30
2018-08-19T11:00:02.068Z,32.40
2018-08-19T11:02:32.151Z,32.40
2018-08-19T11:05:01.833Z,32.20
2018-08-19T11:07:31.429Z,32.40
2018-08-19T11:10:25.077Z,32.60
2018-08-19T11:12:57.578Z,32.60
2018-08-19T11:15:34.212Z,32.60
2018-08-19T11:18:17.406Z,32.80
2018-08-19T11:20:50.231Z,32.80
2018-08-19T11:23:22.928Z,32.80
2018-08-19T11:25:54.590Z,33.00
2018-08-19T11:28:37.213Z,32.80
2018-08-19T11:31:07.724Z,32.80
2018-08-19T11:33:42.124Z,33.10
2018-08-19T11:36:12.592Z,33.20
2018-08-19T11:38:43.114Z,33.20
2018-08-19T11:41:12.960Z,33.20
2018-08-19T11:43:43.884Z,33.20
2018-08-19T11:46:14.162Z,33.50
2018-08-19T11:48:44.147Z,33.70
2018-08-19T11:51:15.623Z,33.80
2018-08-19T11:53:45.318Z,33.90
2018-08-19T11:56:15.037Z,33.80
2018-08-19T11:58:47.593Z,34.00
2018-08-19T12:01:20.736Z,33.90
2018-08-19T12:04:03.720Z,33.50
2018-08-19T12:06:34.326Z,33.60
2018-08-19T12:09:06.248Z,33.80
2018-08-19T12:11:37.111Z,33.80
2018-08-19T12:14:09.870Z,33.70
2018-08-19T12:16:46.908Z,33.50
2018-08-19T12:19:21.886Z,33.80
2018-08-19T12:21:52.860Z,33.90
2018-08-19T12:24:37.356Z,34.10
2018-08-19T12:27:08.604Z,34.40
2018-08-19T12:29:39.271Z,34.80
2018-08-19T12:32:13.312Z,34.80
2018-08-19T12:34:49.207Z,34.70
2018-08-19T12:37:20.194Z,34.70
2018-08-19T12:39:50.044Z,34.80
2018-08-19T12:42:19.715Z,34.70
2018-08-19T12:44:59.451Z,34.70
2018-08-19T12:47:29.302Z,34.90
2018-08-19T12:50:01.293Z,34.80
2018-08-19T12:52:32.182Z,34.70
2018-08-19T12:55:05.938Z,35.00
2018-08-19T12:57:36.634Z,35.10
2018-08-19T13:00:32.347Z,35.10
2018-08-19T13:03:02.394Z,35.10
2018-08-19T13:05:34.682Z,35.00
2018-08-19T13:08:06.283Z,35.40
2018-08-19T13:10:48.388Z,35.30
2018-08-19T13:13:18.931Z,35.30
2018-08-19T13:15:48.728Z,35.50
2018-08-19T13:18:28.333Z,35.80
2018-08-19T13:21:04.098Z,35.80
2018-08-19T13:23:34.452Z,36.10
2018-08-19T13:26:04.172Z,35.80
2018-08-19T13:28:38.804Z,36.00
2018-08-19T13:31:08.482Z,36.40
2018-08-19T13:33:38.096Z,35.90
2018-08-19T13:36:08.742Z,35.80
2018-08-19T13:38:40.461Z,35.60
2018-08-19T13:41:10.069Z,36.10
2018-08-19T13:43:39.690Z,36.10
2018-08-19T13:46:09.334Z,36.10
2018-08-19T13:48:38.957Z,36.70
2018-08-19T13:51:08.980Z,36.50
2018-08-19T13:53:38.621Z,36.50
2018-08-19T13:56:08.244Z,36.00
2018-08-19T13:58:37.826Z,36.20
2018-08-19T14:01:07.373Z,36.20
2018-08-19T14:03:36.905Z,36.40
2018-08-19T14:06:06.734Z,36.70
2018-08-19T14:08:36.365Z,36.70
2018-08-19T14:11:06.128Z,36.80
2018-08-19T14:13:35.731Z,36.80
2018-08-19T14:16:05.399Z,36.60
2018-08-19T14:18:35.066Z,36.50
2018-08-19T14:21:04.732Z,36.60
2018-08-19T14:23:34.373Z,36.40
2018-08-19T14:26:03.994Z,36.40
2018-08-19T14:28:33.651Z,36.60
2018-08-19T14:31:03.341Z,36.70
2018-08-19T14:33:32.961Z,36.60
2018-08-19T14:36:02.637Z,36.80
2018-08-19T14:38:32.389Z,36.90
2018-08-19T14:41:02.116Z,37.20
2018-08-19T14:43:31.940Z,37.80
2018-08-19T14:46:01.828Z,37.40
2018-08-19T14:48:31.704Z,37.20
2018-08-19T14:51:01.293Z,37.60
2018-08-19T14:53:30.912Z,36.80
2018-08-19T14:56:20.381Z,36.90
2018-08-19T14:58:50.014Z,37.00
2018-08-19T15:01:19.612Z,36.50
2018-08-19T15:03:54.167Z,36.40
2018-08-19T15:06:23.871Z,36.70
2018-08-19T15:08:53.514Z,37.10
2018-08-19T15:11:23.205Z,37.50
2018-08-19T15:13:52.915Z,37.30
2018-08-19T15:16:22.512Z,37.10
2018-08-19T15:18:52.128Z,37.10
2018-08-19T15:21:21.833Z,37.30
2018-08-19T15:23:51.396Z,37.60
2018-08-19T15:26:21.036Z,37.90
2018-08-19T15:28:50.674Z,37.80
2018-08-19T15:31:25.467Z,37.30
2018-08-19T15:33:55.279Z,37.80
2018-08-19T15:36:24.942Z,37.90
2018-08-19T15:38:54.621Z,37.40
2018-08-19T15:41:24.261Z,37.60
2018-08-19T15:43:53.882Z,37.50
2018-08-19T15:46:30.843Z,37.30
2018-08-19T15:49:00.477Z,37.10
2018-08-19T15:51:30.561Z,37.90
2018-08-19T15:54:00.197Z,37.90
2018-08-19T15:56:29.803Z,37.40
2018-08-19T15:59:00.661Z,37.00
2018-08-19T16:01:32.039Z,36.80
2018-08-19T16:04:06.911Z,36.30
2018-08-19T16:06:36.702Z,36.20
2018-08-19T16:09:09.737Z,36.00
2018-08-19T16:11:39.584Z,36.00
2018-08-19T16:14:21.940Z,36.20
2018-08-19T16:16:52.128Z,36.40
2018-08-19T16:19:22.337Z,36.30
2018-08-19T16:21:54.435Z,35.90
2018-08-19T16:24:24.596Z,35.60
2018-08-19T16:26:54.812Z,35.40
2018-08-19T16:29:24.970Z,35.10
2018-08-19T16:31:55.212Z,34.60
2018-08-19T16:34:25.042Z,34.40
2018-08-19T16:36:54.834Z,34.30
2018-08-19T16:39:24.939Z,34.30
2018-08-19T16:41:54.751Z,34.20
2018-08-19T16:44:25.121Z,34.30
2018-08-19T16:46:56.184Z,34.30
2018-08-19T16:49:26.584Z,34.10
2018-08-19T16:51:57.038Z,34.10
2018-08-19T16:54:27.514Z,34.10
2018-08-19T16:56:57.940Z,34.10
2018-08-19T16:59:28.365Z,34.10
2018-08-19T17:01:58.816Z,34.60
2018-08-19T17:04:29.218Z,34.70
2018-08-19T17:06:59.631Z,34.90
2018-08-19T17:09:30.378Z,35.00
2018-08-19T17:12:00.795Z,35.20
2018-08-19T17:14:31.379Z,35.20
2018-08-19T17:17:01.790Z,35.10
2018-08-19T17:19:32.181Z,35.00
2018-08-19T17:22:08.373Z,34.80
2018-08-19T17:24:38.825Z,34.50
2018-08-19T17:27:12.711Z,34.00
2018-08-19T17:29:43.222Z,33.60
2018-08-19T17:32:13.702Z,33.30
2018-08-19T17:34:44.043Z,33.50
2018-08-19T17:37:14.358Z,33.60
2018-08-19T17:39:44.832Z,33.60
2018-08-19T17:42:15.091Z,33.20
2018-08-19T17:44:45.436Z,32.90
2018-08-19T17:47:15.763Z,32.60
2018-08-19T17:49:46.121Z,32.30
2018-08-19T17:52:16.662Z,32.20
2018-08-19T17:54:46.848Z,31.80
2018-08-19T17:57:17.088Z,31.80
2018-08-19T17:59:47.264Z,31.80
2018-08-19T18:02:20.594Z,31.80
2018-08-19T18:04:50.668Z,31.70
2018-08-19T18:07:23.802Z,31.60
2018-08-19T18:09:56.958Z,31.70
2018-08-19T18:12:26.945Z,31.60
2018-08-19T18:14:57.317Z,31.60
2018-08-19T18:17:27.419Z,31.30
2018-08-19T18:19:57.721Z,31.10
2018-08-19T18:22:28.060Z,31.00
2018-08-19T18:25:04.947Z,30.90
2018-08-19T18:27:35.367Z,30.60
2018-08-19T18:30:06.109Z,30.40
2018-08-19T18:32:36.391Z,30.20
2018-08-19T18:35:07.738Z,30.10
2018-08-19T18:37:38.206Z,30.10
2018-08-19T18:40:09.186Z,30.10
2018-08-19T18:42:41.848Z,30.00
2018-08-19T18:45:14.037Z,29.90
2018-08-19T18:47:50.201Z,29.90
2018-08-19T18:50:24.336Z,29.90
2018-08-19T18:52:55.204Z,29.50
2018-08-19T18:55:25.764Z,29.30
2018-08-19T18:58:01.080Z,29.10
2018-08-19T19:00:31.686Z,29.30
2018-08-19T19:03:02.370Z,29.30
2018-08-19T19:05:39.233Z,29.30
2018-08-19T19:08:14.265Z,29.20
2018-08-19T19:10:53.528Z,29.30
2018-08-19T19:13:25.105Z,29.40
2018-08-19T19:15:55.898Z,29.30
2018-08-19T19:18:26.430Z,29.20
2018-08-19T19:21:05.167Z,29.30
2018-08-19T19:23:41.911Z,29.00
2018-08-19T19:26:12.447Z,29.10
2018-08-19T19:28:42.881Z,29.10
2018-08-19T19:31:17.450Z,29.10
2018-08-19T19:33:48.432Z,29.30
2018-08-19T19:36:23.481Z,29.30
2018-08-19T19:38:59.467Z,29.30
2018-08-19T19:41:32.163Z,29.20
2018-08-19T19:44:36.119Z,29.20
2018-08-19T19:47:07.599Z,29.10
2018-08-19T19:49:47.238Z,29.10
2018-08-19T19:52:17.665Z,29.00
2018-08-19T19:54:48.531Z,28.90
2018-08-19T19:57:19.419Z,29.00
2018-08-19T19:59:50.578Z,29.00
2018-08-19T20:02:25.922Z,28.90
2018-08-19T20:04:56.353Z,28.80
2018-08-19T20:07:27.038Z,28.80
2018-08-19T20:09:57.477Z,28.80
2018-08-19T20:12:30.941Z,28.80
2018-08-19T20:15:02.681Z,28.80
2018-08-19T20:17:33.156Z,28.80
2018-08-19T20:20:03.740Z,28.80
2018-08-19T20:22:35.237Z,28.70
2018-08-19T20:25:06.135Z,28.70
2018-08-19T20:27:36.569Z,28.80
2018-08-19T20:30:07.638Z,28.90
2018-08-19T20:32:38.015Z,28.70
2018-08-19T20:35:08.625Z,28.80
2018-08-19T20:37:39.355Z,28.80
2018-08-19T20:40:09.958Z,28.90
2018-08-19T20:42:40.379Z,28.80
2018-08-19T20:45:10.845Z,28.80
2018-08-19T20:47:41.692Z,28.70
2018-08-19T20:50:12.197Z,28.70
2018-08-19T20:52:49.678Z,28.70
2018-08-19T20:55:20.004Z,28.70
2018-08-19T20:57:50.297Z,28.70
2018-08-19T21:00:20.576Z,28.70
2018-08-19T21:02:50.695Z,28.60
2018-08-19T21:05:20.841Z,28.60
2018-08-19T21:07:51.032Z,28.40
2018-08-19T21:10:20.832Z,28.40
2018-08-19T21:12:50.715Z,28.40
2018-08-19T21:15:24.485Z,28.20
2018-08-19T21:17:54.164Z,28.40
2018-08-19T21:20:23.743Z,28.30
2018-08-19T21:22:54.775Z,28.40
2018-08-19T21:25:24.674Z,28.40
2018-08-19T21:27:54.268Z,28.40
2018-08-19T21:30:24.165Z,28.30
2018-08-19T21:32:54.661Z,28.20
2018-08-19T21:35:24.255Z,28.20
2018-08-19T21:37:53.898Z,28.10
2018-08-19T21:40:33.633Z,28.20
2018-08-19T21:43:03.207Z,28.20
2018-08-19T21:45:33.001Z,28.30
2018-08-19T21:48:02.589Z,28.30
2018-08-19T21:50:32.229Z,28.30
2018-08-19T21:53:03.871Z,28.30
2018-08-19T21:55:40.906Z,28.30
2018-08-19T21:58:10.649Z,28.30
2018-08-19T22:00:57.784Z,28.20
2018-08-19T22:03:32.592Z,28.30
2018-08-19T22:06:04.858Z,28.30
2018-08-19T22:08:34.578Z,28.10
2018-08-19T22:11:04.448Z,28.20
2018-08-19T22:13:34.041Z,28.20
2018-08-19T22:16:03.733Z,28.30
2018-08-19T22:18:33.433Z,28.30
2018-08-19T22:21:14.817Z,28.20
2018-08-19T22:23:49.536Z,28.20
2018-08-19T22:26:20.285Z,28.20
2018-08-19T22:29:52.722Z,28.00
2018-08-19T22:32:22.407Z,28.00
2018-08-19T22:34:52.043Z,28.00
2018-08-19T22:37:21.713Z,27.70
2018-08-19T22:39:51.446Z,27.50
2018-08-19T22:42:21.006Z,27.50
2018-08-19T22:44:50.553Z,27.50
2018-08-19T22:47:20.193Z,27.50
2018-08-19T22:49:49.772Z,27.50
2018-08-19T22:52:21.940Z,27.50
2018-08-19T22:54:54.974Z,27.40
2018-08-19T22:57:24.658Z,27.30
2018-08-19T22:59:54.533Z,27.30
2018-08-19T23:02:24.504Z,27.50
2018-08-19T23:04:54.100Z,27.50
2018-08-19T23:07:23.701Z,27.60
2018-08-19T23:09:53.324Z,27.70
2018-08-19T23:12:22.919Z,27.40
2018-08-19T23:15:03.306Z,27.30
2018-08-19T23:17:33.014Z,27.40
2018-08-19T23:20:02.581Z,27.30
2018-08-19T23:22:32.281Z,27.40
2018-08-19T23:25:01.893Z,27.40
2018-08-19T23:27:31.426Z,27.40
2018-08-19T23:30:01.014Z,27.30
2018-08-19T23:32:30.764Z,27.20
2018-08-19T23:35:00.422Z,27.00
2018-08-19T23:37:30.025Z,27.10
2018-08-19T23:39:59.663Z,27.00
2018-08-19T23:42:35.623Z,27.10
2018-08-19T23:45:05.367Z,27.10
2018-08-19T23:47:34.962Z,27.00
2018-08-19T23:50:04.629Z,27.00
2018-08-19T23:52:34.269Z,26.90
2018-08-19T23:55:03.964Z,27.00
2018-08-19T23:57:33.543Z,27.10
